sensor_id;sensor_type;location;lat;lon;timestamp;pressure;altitude;pressure_sealevel;temperature;humidity
68380;BME280;57711;53.196;19.638;2024-03-25T00:01:43;98631.80;;;4.08;71.76
68380;BME280;57711;53.196;19.638;2024-03-25T00:04:10;98631.27;;;4.12;71.58
68380;BME280;57711;53.196;19.638;2024-03-25T00:06:37;98632.86;;;4.12;71.58
68380;BME280;57711;53.196;19.638;2024-03-25T00:09:04;98630.85;;;4.11;71.69
68380;BME280;57711;53.196;19.638;2024-03-25T00:11:34;98630.31;;;4.11;71.59
68380;BME280;57711;53.196;19.638;2024-03-25T00:14:01;98627.28;;;4.13;71.67
68380;BME280;57711;53.196;19.638;2024-03-25T00:16:28;98623.86;;;4.15;71.74
68380;BME280;57711;53.196;19.638;2024-03-25T00:18:54;98621.59;;;4.19;71.74
68380;BME280;57711;53.196;19.638;2024-03-25T00:21:21;98622.50;;;4.23;71.70
68380;BME280;57711;53.196;19.638;2024-03-25T15:59:03;98949.48;;;7.98;70.41
68380;BME280;57711;53.196;19.638;2024-03-25T16:01:31;98953.27;;;7.92;70.47
68380;BME280;57711;53.196;19.638;2024-03-25T16:03:58;98953.80;;;7.91;70.41
68380;BME280;57711;53.196;19.638;2024-03-25T16:06:25;98953.34;;;7.87;70.37
68380;BME280;57711;53.196;19.638;2024-03-25T16:08:52;98954.77;;;7.81;70.18
68380;BME280;57711;53.196;19.638;2024-03-25T16:11:19;98961.63;;;7.75;70.12
68380;BME280;57711;53.196;19.638;2024-03-25T16:13:46;98963.08;;;7.70;70.14
68380;BME280;57711;53.196;19.638;2024-03-25T16:16:15;98967.38;;;7.66;70.25
68380;BME280;57711;53.196;19.638;2024-03-25T16:18:42;98969.66;;;7.65;70.28
68380;BME280;57711;53.196;19.638;2024-03-25T16:21:18;98971.20;;;7.64;70.35
68380;BME280;57711;53.196;19.638;2024-03-25T16:23:46;98972.81;;;7.64;70.20
68380;BME280;57711;53.196;19.638;2024-03-25T16:26:13;98973.10;;;7.63;70.41
68380;BME280;57711;53.196;19.638;2024-03-25T16:28:41;98974.54;;;7.61;70.33
68380;BME280;57711;53.196;19.638;2024-03-25T16:31:08;98976.67;;;7.60;70.26
68380;BME280;57711;53.196;19.638;2024-03-25T16:33:35;98976.63;;;7.59;70.41
68380;BME280;57711;53.196;19.638;2024-03-25T16:36:02;98972.25;;;7.57;70.49
68380;BME280;57711;53.196;19.638;2024-03-25T16:38:29;98972.30;;;7.54;70.40
68380;BME280;57711;53.196;19.638;2024-03-25T16:40:56;98969.11;;;7.50;70.41
68380;BME280;57711;53.196;19.638;2024-03-25T16:43:23;98969.42;;;7.45;70.36
68380;BME280;57711;53.196;19.638;2024-03-25T16:45:50;98976.20;;;7.38;70.27
68380;BME280;57711;53.196;19.638;2024-03-25T16:48:17;98983.10;;;7.32;70.32
68380;BME280;57711;53.196;19.638;2024-03-25T16:50:45;98988.92;;;7.26;70.30
68380;BME280;57711;53.196;19.638;2024-03-25T16:53:12;98989.83;;;7.20;70.22
68380;BME280;57711;53.196;19.638;2024-03-25T16:55:40;98991.05;;;7.15;70.36
68380;BME280;57711;53.196;19.638;2024-03-25T16:58:07;98993.42;;;7.11;70.33
68380;BME280;57711;53.196;19.638;2024-03-25T17:00:34;98997.91;;;7.09;70.22
68380;BME280;57711;53.196;19.638;2024-03-25T17:03:01;98998.27;;;7.05;70.14
68380;BME280;57711;53.196;19.638;2024-03-25T17:05:27;98996.96;;;7.02;70.18
68380;BME280;57711;53.196;19.638;2024-03-25T17:07:54;99003.02;;;6.98;70.26
68380;BME280;57711;53.196;19.638;2024-03-25T17:10:21;99005.72;;;6.95;70.10
68380;BME280;57711;53.196;19.638;2024-03-25T17:12:48;99005.89;;;6.89;70.17
68380;BME280;57711;53.196;19.638;2024-03-25T17:15:16;99012.74;;;6.83;70.06
68380;BME280;57711;53.196;19.638;2024-03-25T17:17:43;99023.89;;;6.77;70.13
68380;BME280;57711;53.196;19.638;2024-03-25T17:20:10;99026.36;;;6.72;70.12
68380;BME280;57711;53.196;19.638;2024-03-25T17:22:37;99030.60;;;6.67;70.00
68380;BME280;57711;53.196;19.638;2024-03-25T17:25:05;99034.52;;;6.63;70.04
68380;BME280;57711;53.196;19.638;2024-03-25T17:27:34;99035.81;;;6.59;70.05
68380;BME280;57711;53.196;19.638;2024-03-25T17:30:02;99039.30;;;6.54;70.04
68380;BME280;57711;53.196;19.638;2024-03-25T17:32:30;99035.42;;;6.50;69.96
68380;BME280;57711;53.196;19.638;2024-03-25T17:34:57;99036.52;;;6.45;70.14
68380;BME280;57711;53.196;19.638;2024-03-25T17:37:24;99040.23;;;6.42;70.07
68380;BME280;57711;53.196;19.638;2024-03-25T17:39:51;99040.29;;;6.39;70.02
68380;BME280;57711;53.196;19.638;2024-03-25T17:42:17;99043.07;;;6.36;69.99
68380;BME280;57711;53.196;19.638;2024-03-25T17:44:48;99043.38;;;6.35;69.99
68380;BME280;57711;53.196;19.638;2024-03-25T17:47:16;99046.71;;;6.34;70.08
68380;BME280;57711;53.196;19.638;2024-03-25T17:49:42;99047.29;;;6.32;69.92
68380;BME280;57711;53.196;19.638;2024-03-25T17:52:09;99054.98;;;6.28;69.84
68380;BME280;57711;53.196;19.638;2024-03-25T17:54:36;99059.43;;;6.22;69.98
68380;BME280;57711;53.196;19.638;2024-03-25T17:57:03;99061.09;;;6.18;70.03
68380;BME280;57711;53.196;19.638;2024-03-25T17:59:30;99061.60;;;6.14;69.96
68380;BME280;57711;53.196;19.638;2024-03-25T18:01:57;99063.91;;;6.12;69.91
68380;BME280;57711;53.196;19.638;2024-03-25T18:04:24;99064.36;;;6.11;70.08
68380;BME280;57711;53.196;19.638;2024-03-25T18:06:50;99071.35;;;6.10;69.91
68380;BME280;57711;53.196;19.638;2024-03-25T18:09:17;99066.73;;;6.07;69.94
68380;BME280;57711;53.196;19.638;2024-03-25T18:11:44;99068.46;;;6.06;70.08
68380;BME280;57711;53.196;19.638;2024-03-25T18:14:11;99068.96;;;6.02;69.99
68380;BME280;57711;53.196;19.638;2024-03-25T18:16:38;99071.77;;;6.01;69.81
68380;BME280;57711;53.196;19.638;2024-03-25T18:19:05;99073.35;;;6.01;69.76
68380;BME280;57711;53.196;19.638;2024-03-25T18:21:31;99074.98;;;6.01;69.88
68380;BME280;57711;53.196;19.638;2024-03-25T18:23:59;99073.23;;;6.00;69.79
68380;BME280;57711;53.196;19.638;2024-03-25T18:26:30;99077.27;;;5.97;69.83
68380;BME280;57711;53.196;19.638;2024-03-25T18:28:57;99076.65;;;5.90;69.75
68380;BME280;57711;53.196;19.638;2024-03-25T18:31:24;99078.71;;;5.85;69.70
68380;BME280;57711;53.196;19.638;2024-03-25T18:33:51;99084.27;;;5.83;69.66
68380;BME280;57711;53.196;19.638;2024-03-25T18:36:18;99086.41;;;5.81;69.68
68380;BME280;57711;53.196;19.638;2024-03-25T18:38:46;99088.02;;;5.77;69.80
68380;BME280;57711;53.196;19.638;2024-03-25T18:41:13;99091.42;;;5.75;70.01
68380;BME280;57711;53.196;19.638;2024-03-25T18:43:39;99092.32;;;5.73;69.74
68380;BME280;57711;53.196;19.638;2024-03-25T18:46:06;99097.48;;;5.71;69.74
68380;BME280;57711;53.196;19.638;2024-03-25T18:48:33;99098.55;;;5.69;69.84
68380;BME280;57711;53.196;19.638;2024-03-25T18:51:00;99098.34;;;5.67;69.84
68380;BME280;57711;53.196;19.638;2024-03-25T18:53:27;99101.40;;;5.67;69.88
68380;BME280;57711;53.196;19.638;2024-03-25T18:55:53;99101.96;;;5.67;69.95
68380;BME280;57711;53.196;19.638;2024-03-25T18:58:20;99103.38;;;5.67;69.87
68380;BME280;57711;53.196;19.638;2024-03-25T19:00:47;99104.89;;;5.68;69.92
68380;BME280;57711;53.196;19.638;2024-03-25T19:03:14;99108.06;;;5.69;70.01
68380;BME280;57711;53.196;19.638;2024-03-25T19:05:41;99108.55;;;5.70;70.05
68380;BME280;57711;53.196;19.638;2024-03-25T19:08:08;99108.20;;;5.70;70.04
68380;BME280;57711;53.196;19.638;2024-03-25T19:10:36;99113.90;;;5.70;69.97
68380;BME280;57711;53.196;19.638;2024-03-25T19:13:03;99117.31;;;5.70;69.96
68380;BME280;57711;53.196;19.638;2024-03-25T19:15:31;99119.23;;;5.71;69.86
68380;BME280;57711;53.196;19.638;2024-03-25T19:17:58;99119.33;;;5.70;69.92
68380;BME280;57711;53.196;19.638;2024-03-25T19:20:24;99122.92;;;5.70;69.99
68380;BME280;57711;53.196;19.638;2024-03-25T19:22:51;99127.70;;;5.68;70.18
68380;BME280;57711;53.196;19.638;2024-03-25T19:25:18;99128.38;;;5.66;70.00
68380;BME280;57711;53.196;19.638;2024-03-25T19:27:47;99132.88;;;5.64;69.94
68380;BME280;57711;53.196;19.638;2024-03-25T19:30:14;99136.77;;;5.63;69.87
68380;BME280;57711;53.196;19.638;2024-03-25T19:32:41;99139.51;;;5.62;70.05
68380;BME280;57711;53.196;19.638;2024-03-25T19:35:08;99141.39;;;5.63;70.06
68380;BME280;57711;53.196;19.638;2024-03-25T19:37:35;99141.56;;;5.63;70.12
68380;BME280;57711;53.196;19.638;2024-03-25T19:40:02;99143.98;;;5.65;70.02
68380;BME280;57711;53.196;19.638;2024-03-25T19:42:29;99147.31;;;5.65;69.91
68380;BME280;57711;53.196;19.638;2024-03-25T19:44:56;99149.36;;;5.64;70.01
68380;BME280;57711;53.196;19.638;2024-03-25T19:47:23;99154.42;;;5.64;69.94
68380;BME280;57711;53.196;19.638;2024-03-25T19:49:50;99156.00;;;5.62;70.11
68380;BME280;57711;53.196;19.638;2024-03-25T19:52:17;99157.70;;;5.61;69.98
68380;BME280;57711;53.196;19.638;2024-03-25T19:54:44;99155.16;;;5.60;69.97
68380;BME280;57711;53.196;19.638;2024-03-25T19:57:10;99158.08;;;5.61;70.20
68380;BME280;57711;53.196;19.638;2024-03-25T19:59:37;99157.41;;;5.63;70.21
68380;BME280;57711;53.196;19.638;2024-03-25T20:02:04;99157.98;;;5.64;70.03
68380;BME280;57711;53.196;19.638;2024-03-25T20:04:31;99154.88;;;5.65;70.07
68380;BME280;57711;53.196;19.638;2024-03-25T20:06:59;99155.90;;;5.65;70.13
68380;BME280;57711;53.196;19.638;2024-03-25T20:09:25;99155.18;;;5.65;70.11
68380;BME280;57711;53.196;19.638;2024-03-25T20:11:52;99159.39;;;5.65;70.15
68380;BME280;57711;53.196;19.638;2024-03-25T20:14:19;99162.55;;;5.65;70.19
68380;BME280;57711;53.196;19.638;2024-03-25T20:16:47;99163.23;;;5.66;70.18
68380;BME280;57711;53.196;19.638;2024-03-25T20:19:14;99168.67;;;5.65;70.20
68380;BME280;57711;53.196;19.638;2024-03-25T20:21:40;99163.99;;;5.63;70.11
68380;BME280;57711;53.196;19.638;2024-03-25T20:24:09;99163.92;;;5.62;70.22
68380;BME280;57711;53.196;19.638;2024-03-25T20:26:36;99165.67;;;5.60;70.13
68380;BME280;57711;53.196;19.638;2024-03-25T20:29:03;99167.31;;;5.58;70.18
68380;BME280;57711;53.196;19.638;2024-03-25T20:31:31;99169.17;;;5.57;70.34
68380;BME280;57711;53.196;19.638;2024-03-25T20:33:57;99172.53;;;5.58;70.09
68380;BME280;57711;53.196;19.638;2024-03-25T20:36:24;99174.33;;;5.58;70.12
68380;BME280;57711;53.196;19.638;2024-03-25T20:38:51;99169.04;;;5.57;70.23
68380;BME280;57711;53.196;19.638;2024-03-25T20:41:18;99170.59;;;5.55;70.21
68380;BME280;57711;53.196;19.638;2024-03-25T20:43:45;99169.85;;;5.54;70.08
68380;BME280;57711;53.196;19.638;2024-03-25T20:46:12;99173.67;;;5.51;70.24
68380;BME280;57711;53.196;19.638;2024-03-25T20:48:39;99172.64;;;5.48;70.11
68380;BME280;57711;53.196;19.638;2024-03-25T20:51:06;99180.89;;;5.48;70.21
68380;BME280;57711;53.196;19.638;2024-03-25T20:53:33;99181.77;;;5.48;70.18
68380;BME280;57711;53.196;19.638;2024-03-25T20:56:00;99180.16;;;5.48;70.10
68380;BME280;57711;53.196;19.638;2024-03-25T20:58:26;99185.73;;;5.46;70.19
68380;BME280;57711;53.196;19.638;2024-03-25T21:00:53;99189.46;;;5.44;70.21
68380;BME280;57711;53.196;19.638;2024-03-25T21:03:20;99184.50;;;5.41;70.15
68380;BME280;57711;53.196;19.638;2024-03-25T21:05:57;99185.34;;;5.38;70.09
68380;BME280;57711;53.196;19.638;2024-03-25T21:08:25;99183.30;;;5.35;70.02
68380;BME280;57711;53.196;19.638;2024-03-25T21:10:51;99183.42;;;5.31;70.06
68380;BME280;57711;53.196;19.638;2024-03-25T21:13:18;99191.98;;;5.27;70.03
68380;BME280;57711;53.196;19.638;2024-03-25T21:15:45;99193.09;;;5.20;69.95
68380;BME280;57711;53.196;19.638;2024-03-25T21:18:12;99191.70;;;5.13;69.91
68380;BME280;57711;53.196;19.638;2024-03-25T21:20:39;99192.61;;;5.07;70.08
68380;BME280;57711;53.196;19.638;2024-03-25T21:23:06;99187.80;;;5.02;70.04
68380;BME280;57711;53.196;19.638;2024-03-25T21:25:32;99190.10;;;5.01;70.03
68380;BME280;57711;53.196;19.638;2024-03-25T21:27:59;99192.50;;;5.00;70.08
68380;BME280;57711;53.196;19.638;2024-03-25T21:30:29;99193.61;;;4.97;70.21
68380;BME280;57711;53.196;19.638;2024-03-25T21:32:56;99192.83;;;4.93;70.07
68380;BME280;57711;53.196;19.638;2024-03-25T21:35:23;99192.22;;;4.90;70.07
68380;BME280;57711;53.196;19.638;2024-03-25T21:37:50;99193.66;;;4.85;69.93
68380;BME280;57711;53.196;19.638;2024-03-25T21:40:17;99190.92;;;4.82;70.06
68380;BME280;57711;53.196;19.638;2024-03-25T21:42:44;99193.23;;;4.80;70.06
68380;BME280;57711;53.196;19.638;2024-03-25T21:45:10;99199.28;;;4.78;70.01
68380;BME280;57711;53.196;19.638;2024-03-25T21:47:37;99203.24;;;4.76;70.01
68380;BME280;57711;53.196;19.638;2024-03-25T21:50:04;99208.05;;;4.71;69.90
68380;BME280;57711;53.196;19.638;2024-03-25T21:52:31;99204.29;;;4.67;70.09
68380;BME280;57711;53.196;19.638;2024-03-25T21:54:58;99206.82;;;4.63;70.10
68380;BME280;57711;53.196;19.638;2024-03-25T21:57:25;99209.08;;;4.59;70.09
68380;BME280;57711;53.196;19.638;2024-03-25T21:59:52;99213.64;;;4.56;70.02
68380;BME280;57711;53.196;19.638;2024-03-25T22:02:19;99216.81;;;4.54;69.92
68380;BME280;57711;53.196;19.638;2024-03-25T22:04:46;99222.44;;;4.51;69.96
68380;BME280;57711;53.196;19.638;2024-03-25T22:07:13;99223.63;;;4.47;70.12
68380;BME280;57711;53.196;19.638;2024-03-25T22:09:40;99228.72;;;4.44;70.15
68380;BME280;57711;53.196;19.638;2024-03-25T22:12:07;99229.48;;;4.41;70.16
68380;BME280;57711;53.196;19.638;2024-03-25T22:14:34;99229.84;;;4.39;70.06
68380;BME280;57711;53.196;19.638;2024-03-25T22:17:01;99223.42;;;4.37;69.94
68380;BME280;57711;53.196;19.638;2024-03-25T22:19:28;99226.12;;;4.34;69.95
68380;BME280;57711;53.196;19.638;2024-03-25T22:21:55;99226.15;;;4.31;69.97
68380;BME280;57711;53.196;19.638;2024-03-25T22:24:22;99229.70;;;4.30;70.13
68380;BME280;57711;53.196;19.638;2024-03-25T22:26:48;99231.99;;;4.28;69.94
68380;BME280;57711;53.196;19.638;2024-03-25T22:29:15;99232.61;;;4.24;69.89
68380;BME280;57711;53.196;19.638;2024-03-25T22:31:42;99231.88;;;4.20;69.95
68380;BME280;57711;53.196;19.638;2024-03-25T22:34:09;99229.60;;;4.17;70.01
68380;BME280;57711;53.196;19.638;2024-03-25T22:36:36;99229.85;;;4.14;69.97
68380;BME280;57711;53.196;19.638;2024-03-25T22:39:03;99223.60;;;4.12;70.01
68380;BME280;57711;53.196;19.638;2024-03-25T22:41:30;99229.86;;;4.09;69.91
68380;BME280;57711;53.196;19.638;2024-03-25T22:43:58;99231.26;;;4.08;69.98
68380;BME280;57711;53.196;19.638;2024-03-25T22:46:25;99234.65;;;4.06;69.82
68380;BME280;57711;53.196;19.638;2024-03-25T22:48:52;99240.77;;;4.03;69.94
68380;BME280;57711;53.196;19.638;2024-03-25T22:51:18;99240.45;;;4.00;69.87
68380;BME280;57711;53.196;19.638;2024-03-25T22:53:45;99242.13;;;3.96;69.95
68380;BME280;57711;53.196;19.638;2024-03-25T22:56:12;99241.30;;;3.94;69.99
68380;BME280;57711;53.196;19.638;2024-03-25T22:58:39;99241.20;;;3.90;69.89
68380;BME280;57711;53.196;19.638;2024-03-25T23:01:07;99240.13;;;3.88;70.00
68380;BME280;57711;53.196;19.638;2024-03-25T23:03:35;99243.09;;;3.87;69.88
68380;BME280;57711;53.196;19.638;2024-03-25T23:06:03;99244.82;;;3.83;69.87
68380;BME280;57711;53.196;19.638;2024-03-25T23:08:30;99250.73;;;3.80;69.86
68380;BME280;57711;53.196;19.638;2024-03-25T23:10:59;99246.69;;;3.77;69.83
68380;BME280;57711;53.196;19.638;2024-03-25T23:13:27;99249.81;;;3.73;69.92
68380;BME280;57711;53.196;19.638;2024-03-25T23:15:54;99250.59;;;3.70;69.77
68380;BME280;57711;53.196;19.638;2024-03-25T23:18:21;99252.55;;;3.68;69.73
68380;BME280;57711;53.196;19.638;2024-03-25T23:20:49;99249.26;;;3.65;69.74
68380;BME280;57711;53.196;19.638;2024-03-25T23:23:17;99248.23;;;3.62;69.73
68380;BME280;57711;53.196;19.638;2024-03-25T23:25:45;99250.61;;;3.59;69.67
68380;BME280;57711;53.196;19.638;2024-03-25T23:28:14;99249.80;;;3.55;69.82
68380;BME280;57711;53.196;19.638;2024-03-25T23:30:41;99249.52;;;3.52;69.85
68380;BME280;57711;53.196;19.638;2024-03-25T23:33:08;99248.85;;;3.49;69.85
68380;BME280;57711;53.196;19.638;2024-03-25T23:35:35;99249.52;;;3.48;69.76
68380;BME280;57711;53.196;19.638;2024-03-25T23:38:03;99253.00;;;3.46;69.81
68380;BME280;57711;53.196;19.638;2024-03-25T23:40:30;99253.08;;;3.45;69.71
68380;BME280;57711;53.196;19.638;2024-03-25T23:42:57;99249.86;;;3.43;69.86
68380;BME280;57711;53.196;19.638;2024-03-25T23:45:26;99254.19;;;3.40;69.77
68380;BME280;57711;53.196;19.638;2024-03-25T23:47:53;99253.81;;;3.37;69.77
68380;BME280;57711;53.196;19.638;2024-03-25T23:50:20;99253.13;;;3.34;69.69
68380;BME280;57711;53.196;19.638;2024-03-25T23:52:47;99252.78;;;3.32;69.79
68380;BME280;57711;53.196;19.638;2024-03-25T23:55:14;99252.42;;;3.30;69.81
68380;BME280;57711;53.196;19.638;2024-03-25T23:57:40;99257.90;;;3.28;69.60
